sensor_id;sensor_type;location;lat;lon;timestamp;P1;durP1;ratioP1;P2;durP2;ratioP2
11018;SDS011;5563;52.296;6.806;2023-05-10T00:02:21;6.35;;;5.75;;
11018;SDS011;5563;52.296;6.806;2023-05-10T00:04:50;7.05;;;6.20;;
11018;SDS011;5563;52.296;6.806;2023-05-10T00:07:26;6.15;;;5.63;;
11018;SDS011;5563;52.296;6.806;2023-05-10T00:09:54;6.53;;;5.93;;
11018;SDS011;5563;52.296;6.806;2023-05-10T00:12:30;6.93;;;6.32;;
11018;SDS011;5563;52.296;6.806;2023-05-10T00:14:59;6.78;;;6.18;;
11018;SDS011;5563;52.296;6.806;2023-05-10T00:17:38;7.47;;;6.35;;
11018;SDS011;5563;52.296;6.806;2023-05-10T00:20:08;7.50;;;6.47;;
11018;SDS011;5563;52.296;6.806;2023-05-10T00:22:44;6.80;;;6.13;;
11018;SDS011;5563;52.296;6.806;2023-05-10T00:25:11;7.38;;;6.70;;
11018;SDS011;5563;52.296;6.806;2023-05-10T00:27:49;7.45;;;6.70;;
11018;SDS011;5563;52.296;6.806;2023-05-10T00:30:18;7.30;;;6.60;;
11018;SDS011;5563;52.296;6.806;2023-05-10T00:33:00;8.38;;;6.95;;
11018;SDS011;5563;52.296;6.806;2023-05-10T00:35:36;8.00;;;6.93;;
11018;SDS011;5563;52.296;6.806;2023-05-10T00:38:04;9.15;;;8.25;;
11018;SDS011;5563;52.296;6.806;2023-05-10T00:40:40;9.32;;;8.43;;
11018;SDS011;5563;52.296;6.806;2023-05-10T00:43:08;10.38;;;8.88;;
11018;SDS011;5563;52.296;6.806;2023-05-10T00:45:45;10.73;;;9.57;;
11018;SDS011;5563;52.296;6.806;2023-05-10T00:48:19;11.05;;;9.88;;
11018;SDS011;5563;52.296;6.806;2023-05-10T00:50:54;11.00;;;9.90;;
11018;SDS011;5563;52.296;6.806;2023-05-10T00:53:22;11.60;;;10.40;;
11018;SDS011;5563;52.296;6.806;2023-05-10T00:55:59;12.15;;;10.88;;
11018;SDS011;5563;52.296;6.806;2023-05-10T00:58:34;14.00;;;12.50;;
11018;SDS011;5563;52.296;6.806;2023-05-10T01:01:02;12.77;;;11.25;;
11018;SDS011;5563;52.296;6.806;2023-05-10T01:03:41;12.90;;;11.50;;
11018;SDS011;5563;52.296;6.806;2023-05-10T01:06:18;13.38;;;11.52;;
11018;SDS011;5563;52.296;6.806;2023-05-10T01:08:45;13.40;;;11.27;;
11018;SDS011;5563;52.296;6.806;2023-05-10T01:11:24;12.20;;;10.75;;
11018;SDS011;5563;52.296;6.806;2023-05-10T01:13:58;12.25;;;10.95;;
11018;SDS011;5563;52.296;6.806;2023-05-10T01:16:32;12.68;;;10.93;;
11018;SDS011;5563;52.296;6.806;2023-05-10T01:19:17;12.50;;;10.48;;
11018;SDS011;5563;52.296;6.806;2023-05-10T01:22:01;12.93;;;11.57;;
11018;SDS011;5563;52.296;6.806;2023-05-10T01:30:42;13.77;;;11.68;;
11018;SDS011;5563;52.296;6.806;2023-05-10T01:44:46;13.63;;;11.30;;
11018;SDS011;5563;52.296;6.806;2023-05-10T01:47:38;13.35;;;11.25;;
11018;SDS011;5563;52.296;6.806;2023-05-10T01:50:41;14.98;;;11.32;;
11018;SDS011;5563;52.296;6.806;2023-05-10T01:53:13;13.32;;;10.43;;
11018;SDS011;5563;52.296;6.806;2023-05-10T01:55:52;13.02;;;10.73;;
11018;SDS011;5563;52.296;6.806;2023-05-10T01:58:30;12.80;;;10.90;;
11018;SDS011;5563;52.296;6.806;2023-05-10T02:01:05;12.95;;;11.05;;
11018;SDS011;5563;52.296;6.806;2023-05-10T02:03:41;14.18;;;11.13;;
11018;SDS011;5563;52.296;6.806;2023-05-10T02:06:18;12.55;;;10.98;;
11018;SDS011;5563;52.296;6.806;2023-05-10T02:08:58;12.85;;;10.98;;
11018;SDS011;5563;52.296;6.806;2023-05-10T02:11:42;13.45;;;11.05;;
11018;SDS011;5563;52.296;6.806;2023-05-10T02:14:18;13.27;;;10.70;;
11018;SDS011;5563;52.296;6.806;2023-05-10T02:16:47;13.90;;;11.68;;
11018;SDS011;5563;52.296;6.806;2023-05-10T02:19:23;13.98;;;11.88;;
11018;SDS011;5563;52.296;6.806;2023-05-10T02:22:01;12.98;;;11.57;;
11018;SDS011;5563;52.296;6.806;2023-05-10T02:24:39;14.60;;;12.02;;
11018;SDS011;5563;52.296;6.806;2023-05-10T02:27:14;17.40;;;11.82;;
11018;SDS011;5563;52.296;6.806;2023-05-10T02:29:52;13.63;;;11.85;;
11018;SDS011;5563;52.296;6.806;2023-05-10T02:32:24;14.52;;;11.32;;
11018;SDS011;5563;52.296;6.806;2023-05-10T02:35:02;13.63;;;12.07;;
11018;SDS011;5563;52.296;6.806;2023-05-10T02:37:41;14.85;;;11.77;;
11018;SDS011;5563;52.296;6.806;2023-05-10T02:40:16;15.20;;;12.32;;
11018;SDS011;5563;52.296;6.806;2023-05-10T02:42:54;15.02;;;12.02;;
11018;SDS011;5563;52.296;6.806;2023-05-10T02:45:36;15.35;;;12.20;;
11018;SDS011;5563;52.296;6.806;2023-05-10T02:48:28;14.93;;;12.82;;
11018;SDS011;5563;52.296;6.806;2023-05-10T02:51:05;14.75;;;12.50;;
11018;SDS011;5563;52.296;6.806;2023-05-10T02:53:41;16.35;;;12.90;;
11018;SDS011;5563;52.296;6.806;2023-05-10T02:56:28;16.27;;;11.90;;
11018;SDS011;5563;52.296;6.806;2023-05-10T02:59:05;18.50;;;12.38;;
11018;SDS011;5563;52.296;6.806;2023-05-10T03:01:39;16.13;;;12.25;;
11018;SDS011;5563;52.296;6.806;2023-05-10T03:04:15;16.30;;;12.95;;
11018;SDS011;5563;52.296;6.806;2023-05-10T03:06:49;19.38;;;13.07;;
11018;SDS011;5563;52.296;6.806;2023-05-10T03:09:26;17.20;;;12.93;;
11018;SDS011;5563;52.296;6.806;2023-05-10T03:15:03;16.75;;;12.65;;
11018;SDS011;5563;52.296;6.806;2023-05-10T03:18:07;18.10;;;13.52;;
11018;SDS011;5563;52.296;6.806;2023-05-10T03:20:50;16.98;;;12.38;;
11018;SDS011;5563;52.296;6.806;2023-05-10T03:23:41;18.23;;;13.48;;
11018;SDS011;5563;52.296;6.806;2023-05-10T03:26:24;20.15;;;14.27;;
11018;SDS011;5563;52.296;6.806;2023-05-10T03:28:59;21.13;;;14.13;;
11018;SDS011;5563;52.296;6.806;2023-05-10T03:31:38;20.73;;;15.27;;
11018;SDS011;5563;52.296;6.806;2023-05-10T03:34:15;20.90;;;13.93;;
11018;SDS011;5563;52.296;6.806;2023-05-10T03:36:49;21.40;;;14.13;;
11018;SDS011;5563;52.296;6.806;2023-05-10T03:39:17;24.60;;;15.85;;
11018;SDS011;5563;52.296;6.806;2023-05-10T03:41:51;25.33;;;16.25;;
11018;SDS011;5563;52.296;6.806;2023-05-10T03:44:22;22.98;;;16.00;;
11018;SDS011;5563;52.296;6.806;2023-05-10T03:47:08;26.45;;;17.25;;
11018;SDS011;5563;52.296;6.806;2023-05-10T03:49:49;23.50;;;15.60;;
11018;SDS011;5563;52.296;6.806;2023-05-10T03:52:22;26.92;;;17.80;;
11018;SDS011;5563;52.296;6.806;2023-05-10T03:54:50;30.40;;;18.95;;
11018;SDS011;5563;52.296;6.806;2023-05-10T03:57:23;29.05;;;19.13;;
11018;SDS011;5563;52.296;6.806;2023-05-10T03:59:57;30.75;;;18.15;;
11018;SDS011;5563;52.296;6.806;2023-05-10T04:02:28;32.92;;;19.27;;
11018;SDS011;5563;52.296;6.806;2023-05-10T04:05:04;33.22;;;19.27;;
11018;SDS011;5563;52.296;6.806;2023-05-10T04:07:40;33.33;;;20.30;;
11018;SDS011;5563;52.296;6.806;2023-05-10T04:10:14;37.38;;;21.13;;
11018;SDS011;5563;52.296;6.806;2023-05-10T04:12:43;35.05;;;21.00;;
11018;SDS011;5563;52.296;6.806;2023-05-10T04:15:17;36.88;;;21.95;;
11018;SDS011;5563;52.296;6.806;2023-05-10T04:17:44;37.22;;;22.75;;
11018;SDS011;5563;52.296;6.806;2023-05-10T04:20:21;38.17;;;21.35;;
11018;SDS011;5563;52.296;6.806;2023-05-10T04:22:49;42.63;;;22.85;;
11018;SDS011;5563;52.296;6.806;2023-05-10T04:25:19;39.58;;;22.02;;
11018;SDS011;5563;52.296;6.806;2023-05-10T04:27:54;39.75;;;23.13;;
11018;SDS011;5563;52.296;6.806;2023-05-10T04:30:24;40.53;;;22.10;;
11018;SDS011;5563;52.296;6.806;2023-05-10T04:32:59;41.58;;;24.17;;
11018;SDS011;5563;52.296;6.806;2023-05-10T04:35:34;44.85;;;25.70;;
11018;SDS011;5563;52.296;6.806;2023-05-10T04:38:02;47.35;;;25.60;;
11018;SDS011;5563;52.296;6.806;2023-05-10T04:40:42;49.10;;;25.15;;
11018;SDS011;5563;52.296;6.806;2023-05-10T04:43:16;51.83;;;26.15;;
11018;SDS011;5563;52.296;6.806;2023-05-10T04:45:59;53.95;;;27.17;;
11018;SDS011;5563;52.296;6.806;2023-05-10T04:48:43;52.22;;;26.55;;
11018;SDS011;5563;52.296;6.806;2023-05-10T04:51:20;55.63;;;26.73;;
11018;SDS011;5563;52.296;6.806;2023-05-10T04:53:49;54.38;;;27.58;;
11018;SDS011;5563;52.296;6.806;2023-05-10T04:56:50;57.45;;;27.60;;
11018;SDS011;5563;52.296;6.806;2023-05-10T04:59:35;59.83;;;27.65;;
11018;SDS011;5563;52.296;6.806;2023-05-10T05:02:18;60.50;;;27.40;;
11018;SDS011;5563;52.296;6.806;2023-05-10T05:04:48;58.25;;;27.17;;
11018;SDS011;5563;52.296;6.806;2023-05-10T05:07:24;66.40;;;28.98;;
11018;SDS011;5563;52.296;6.806;2023-05-10T05:10:08;64.53;;;29.50;;
11018;SDS011;5563;52.296;6.806;2023-05-10T05:12:40;61.88;;;28.70;;
11018;SDS011;5563;52.296;6.806;2023-05-10T05:15:20;67.65;;;31.10;;
11018;SDS011;5563;52.296;6.806;2023-05-10T05:17:54;71.55;;;30.85;;
11018;SDS011;5563;52.296;6.806;2023-05-10T05:20:34;71.28;;;30.23;;
11018;SDS011;5563;52.296;6.806;2023-05-10T05:23:08;71.10;;;32.22;;
11018;SDS011;5563;52.296;6.806;2023-05-10T05:25:42;73.90;;;31.98;;
11018;SDS011;5563;52.296;6.806;2023-05-10T05:28:18;75.20;;;32.88;;
11018;SDS011;5563;52.296;6.806;2023-05-10T05:30:48;81.93;;;32.40;;
11018;SDS011;5563;52.296;6.806;2023-05-10T05:33:26;74.10;;;33.13;;
11018;SDS011;5563;52.296;6.806;2023-05-10T05:36:02;74.68;;;32.83;;
11018;SDS011;5563;52.296;6.806;2023-05-10T05:38:32;77.05;;;34.35;;
11018;SDS011;5563;52.296;6.806;2023-05-10T05:41:07;76.25;;;33.80;;
11018;SDS011;5563;52.296;6.806;2023-05-10T05:43:41;76.20;;;34.20;;
11018;SDS011;5563;52.296;6.806;2023-05-10T05:46:22;77.70;;;33.65;;
11018;SDS011;5563;52.296;6.806;2023-05-10T05:48:52;83.20;;;36.28;;
11018;SDS011;5563;52.296;6.806;2023-05-10T05:51:32;78.78;;;34.75;;
11018;SDS011;5563;52.296;6.806;2023-05-10T05:54:07;80.35;;;34.65;;
11018;SDS011;5563;52.296;6.806;2023-05-10T05:56:44;81.95;;;36.67;;
11018;SDS011;5563;52.296;6.806;2023-05-10T05:59:14;82.05;;;35.42;;
11018;SDS011;5563;52.296;6.806;2023-05-10T06:01:41;76.95;;;33.83;;
11018;SDS011;5563;52.296;6.806;2023-05-10T06:04:27;80.60;;;34.28;;
11018;SDS011;5563;52.296;6.806;2023-05-10T06:07:01;86.57;;;36.33;;
11018;SDS011;5563;52.296;6.806;2023-05-10T06:09:31;84.80;;;37.45;;
11018;SDS011;5563;52.296;6.806;2023-05-10T06:12:05;80.82;;;35.92;;
11018;SDS011;5563;52.296;6.806;2023-05-10T06:14:35;83.80;;;37.08;;
11018;SDS011;5563;52.296;6.806;2023-05-10T06:17:09;79.70;;;34.65;;
11018;SDS011;5563;52.296;6.806;2023-05-10T06:19:37;85.00;;;35.95;;
11018;SDS011;5563;52.296;6.806;2023-05-10T06:22:19;77.10;;;34.70;;
11018;SDS011;5563;52.296;6.806;2023-05-10T06:25:00;76.55;;;34.20;;
11018;SDS011;5563;52.296;6.806;2023-05-10T06:27:29;76.57;;;34.70;;
11018;SDS011;5563;52.296;6.806;2023-05-10T06:30:03;76.15;;;34.35;;
11018;SDS011;5563;52.296;6.806;2023-05-10T06:32:42;72.03;;;34.72;;
11018;SDS011;5563;52.296;6.806;2023-05-10T06:35:16;79.40;;;34.40;;
11018;SDS011;5563;52.296;6.806;2023-05-10T06:37:45;71.60;;;33.28;;
11018;SDS011;5563;52.296;6.806;2023-05-10T06:40:19;70.28;;;33.47;;
11018;SDS011;5563;52.296;6.806;2023-05-10T06:42:47;69.32;;;34.38;;
11018;SDS011;5563;52.296;6.806;2023-05-10T06:45:21;71.85;;;34.92;;
11018;SDS011;5563;52.296;6.806;2023-05-10T06:48:02;65.65;;;32.88;;
11018;SDS011;5563;52.296;6.806;2023-05-10T06:50:39;65.22;;;32.00;;
11018;SDS011;5563;52.296;6.806;2023-05-10T06:53:06;68.70;;;32.45;;
11018;SDS011;5563;52.296;6.806;2023-05-10T06:55:34;70.07;;;34.35;;
11018;SDS011;5563;52.296;6.806;2023-05-10T06:58:08;68.95;;;33.88;;
11018;SDS011;5563;52.296;6.806;2023-05-10T07:00:37;61.72;;;31.00;;
11018;SDS011;5563;52.296;6.806;2023-05-10T07:03:17;64.57;;;29.85;;
11018;SDS011;5563;52.296;6.806;2023-05-10T07:05:47;63.50;;;32.80;;
11018;SDS011;5563;52.296;6.806;2023-05-10T07:08:23;64.82;;;31.48;;
11018;SDS011;5563;52.296;6.806;2023-05-10T07:10:51;58.97;;;29.80;;
11018;SDS011;5563;52.296;6.806;2023-05-10T07:13:27;60.40;;;31.13;;
11018;SDS011;5563;52.296;6.806;2023-05-10T07:15:55;60.42;;;30.52;;
11018;SDS011;5563;52.296;6.806;2023-05-10T07:18:32;61.22;;;30.63;;
11018;SDS011;5563;52.296;6.806;2023-05-10T07:20:59;67.10;;;33.00;;
11018;SDS011;5563;52.296;6.806;2023-05-10T07:23:35;68.50;;;34.40;;
11018;SDS011;5563;52.296;6.806;2023-05-10T07:26:03;63.53;;;32.40;;
11018;SDS011;5563;52.296;6.806;2023-05-10T07:28:36;63.63;;;33.03;;
11018;SDS011;5563;52.296;6.806;2023-05-10T07:31:17;63.08;;;31.35;;
11018;SDS011;5563;52.296;6.806;2023-05-10T07:33:47;62.70;;;32.42;;
11018;SDS011;5563;52.296;6.806;2023-05-10T07:36:23;65.20;;;32.08;;
11018;SDS011;5563;52.296;6.806;2023-05-10T07:38:50;70.20;;;34.47;;
11018;SDS011;5563;52.296;6.806;2023-05-10T07:41:23;61.85;;;30.42;;
11018;SDS011;5563;52.296;6.806;2023-05-10T07:43:50;61.28;;;30.75;;
11018;SDS011;5563;52.296;6.806;2023-05-10T07:46:27;51.35;;;28.05;;
11018;SDS011;5563;52.296;6.806;2023-05-10T07:49:03;55.55;;;30.65;;
11018;SDS011;5563;52.296;6.806;2023-05-10T07:51:40;51.95;;;27.55;;
11018;SDS011;5563;52.296;6.806;2023-05-10T07:54:09;50.13;;;27.80;;
11018;SDS011;5563;52.296;6.806;2023-05-10T07:56:42;53.78;;;27.90;;
11018;SDS011;5563;52.296;6.806;2023-05-10T07:59:17;50.33;;;27.48;;
11018;SDS011;5563;52.296;6.806;2023-05-10T08:01:50;52.25;;;27.55;;
11018;SDS011;5563;52.296;6.806;2023-05-10T08:04:18;50.22;;;25.55;;
11018;SDS011;5563;52.296;6.806;2023-05-10T08:06:52;48.30;;;25.10;;
11018;SDS011;5563;52.296;6.806;2023-05-10T08:09:19;52.17;;;25.95;;
11018;SDS011;5563;52.296;6.806;2023-05-10T08:11:56;52.85;;;25.30;;
11018;SDS011;5563;52.296;6.806;2023-05-10T08:14:28;51.17;;;25.00;;
11018;SDS011;5563;52.296;6.806;2023-05-10T08:17:03;49.88;;;24.15;;
11018;SDS011;5563;52.296;6.806;2023-05-10T08:19:30;49.10;;;24.40;;
11018;SDS011;5563;52.296;6.806;2023-05-10T08:22:04;51.72;;;25.33;;
11018;SDS011;5563;52.296;6.806;2023-05-10T08:24:38;51.05;;;25.75;;
11018;SDS011;5563;52.296;6.806;2023-05-10T08:27:14;51.80;;;24.50;;
11018;SDS011;5563;52.296;6.806;2023-05-10T08:29:48;50.53;;;23.50;;
11018;SDS011;5563;52.296;6.806;2023-05-10T08:32:16;56.05;;;26.30;;
11018;SDS011;5563;52.296;6.806;2023-05-10T08:34:50;52.40;;;24.38;;
11018;SDS011;5563;52.296;6.806;2023-05-10T08:37:18;53.15;;;26.08;;
11018;SDS011;5563;52.296;6.806;2023-05-10T08:39:45;58.95;;;26.08;;
11018;SDS011;5563;52.296;6.806;2023-05-10T08:42:21;59.75;;;26.10;;
11018;SDS011;5563;52.296;6.806;2023-05-10T08:45:03;59.42;;;27.77;;
11018;SDS011;5563;52.296;6.806;2023-05-10T08:47:49;64.22;;;26.70;;
11018;SDS011;5563;52.296;6.806;2023-05-10T08:50:20;59.22;;;26.13;;
11018;SDS011;5563;52.296;6.806;2023-05-10T08:53:01;61.95;;;26.95;;
11018;SDS011;5563;52.296;6.806;2023-05-10T08:55:40;64.05;;;27.23;;
11018;SDS011;5563;52.296;6.806;2023-05-10T08:58:22;58.28;;;26.27;;
11018;SDS011;5563;52.296;6.806;2023-05-10T09:00:52;63.63;;;27.92;;
11018;SDS011;5563;52.296;6.806;2023-05-10T09:03:29;60.90;;;27.55;;
11018;SDS011;5563;52.296;6.806;2023-05-10T09:05:57;65.47;;;28.02;;
11018;SDS011;5563;52.296;6.806;2023-05-10T09:08:37;62.00;;;26.98;;
11018;SDS011;5563;52.296;6.806;2023-05-10T09:11:07;70.18;;;27.90;;
11018;SDS011;5563;52.296;6.806;2023-05-10T09:13:44;60.10;;;27.55;;
11018;SDS011;5563;52.296;6.806;2023-05-10T09:16:17;60.38;;;26.77;;
11018;SDS011;5563;52.296;6.806;2023-05-10T09:18:50;58.05;;;26.45;;
11018;SDS011;5563;52.296;6.806;2023-05-10T09:21:19;59.97;;;27.63;;
11018;SDS011;5563;52.296;6.806;2023-05-10T09:24:02;54.95;;;25.23;;
11018;SDS011;5563;52.296;6.806;2023-05-10T09:26:34;60.22;;;27.33;;
11018;SDS011;5563;52.296;6.806;2023-05-10T09:29:11;56.33;;;25.67;;
11018;SDS011;5563;52.296;6.806;2023-05-10T09:31:44;52.95;;;24.77;;
11018;SDS011;5563;52.296;6.806;2023-05-10T09:34:38;48.60;;;23.75;;
11018;SDS011;5563;52.296;6.806;2023-05-10T09:37:07;48.13;;;23.15;;
11018;SDS011;5563;52.296;6.806;2023-05-10T09:39:43;34.25;;;19.45;;
11018;SDS011;5563;52.296;6.806;2023-05-10T09:42:10;31.05;;;17.58;;
11018;SDS011;5563;52.296;6.806;2023-05-10T09:44:45;27.42;;;16.33;;
11018;SDS011;5563;52.296;6.806;2023-05-10T09:47:19;22.40;;;13.82;;
11018;SDS011;5563;52.296;6.806;2023-05-10T09:49:52;24.42;;;13.88;;
11018;SDS011;5563;52.296;6.806;2023-05-10T09:52:46;22.60;;;13.43;;
11018;SDS011;5563;52.296;6.806;2023-05-10T09:55:21;21.77;;;13.32;;
11018;SDS011;5563;52.296;6.806;2023-05-10T09:57:57;22.20;;;12.77;;
11018;SDS011;5563;52.296;6.806;2023-05-10T10:00:36;29.65;;;21.05;;
11018;SDS011;5563;52.296;6.806;2023-05-10T10:03:14;25.25;;;16.98;;
11018;SDS011;5563;52.296;6.806;2023-05-10T10:05:55;19.75;;;13.05;;
11018;SDS011;5563;52.296;6.806;2023-05-10T10:08:23;20.60;;;13.60;;
11018;SDS011;5563;52.296;6.806;2023-05-10T10:10:57;19.58;;;12.82;;
11018;SDS011;5563;52.296;6.806;2023-05-10T10:13:31;21.35;;;13.45;;
11018;SDS011;5563;52.296;6.806;2023-05-10T10:15:58;19.08;;;12.52;;
11018;SDS011;5563;52.296;6.806;2023-05-10T10:18:33;19.27;;;12.93;;
11018;SDS011;5563;52.296;6.806;2023-05-10T10:21:02;17.55;;;11.70;;
11018;SDS011;5563;52.296;6.806;2023-05-10T10:23:40;18.63;;;11.40;;
11018;SDS011;5563;52.296;6.806;2023-05-10T10:26:13;17.90;;;12.00;;
11018;SDS011;5563;52.296;6.806;2023-05-10T10:31:44;15.00;;;11.05;;
11018;SDS011;5563;52.296;6.806;2023-05-10T10:34:26;15.40;;;10.20;;
11018;SDS011;5563;52.296;6.806;2023-05-10T10:37:07;14.50;;;10.68;;
11018;SDS011;5563;52.296;6.806;2023-05-10T10:39:34;16.88;;;12.02;;
11018;SDS011;5563;52.296;6.806;2023-05-10T10:42:12;15.73;;;11.60;;
11018;SDS011;5563;52.296;6.806;2023-05-10T10:45:12;15.40;;;10.93;;
11018;SDS011;5563;52.296;6.806;2023-05-10T10:47:40;13.82;;;10.63;;
11018;SDS011;5563;52.296;6.806;2023-05-10T10:50:32;14.68;;;10.32;;
11018;SDS011;5563;52.296;6.806;2023-05-10T10:53:15;13.23;;;11.07;;
11018;SDS011;5563;52.296;6.806;2023-05-10T10:55:53;15.98;;;10.82;;
11018;SDS011;5563;52.296;6.806;2023-05-10T10:58:51;13.35;;;10.48;;
11018;SDS011;5563;52.296;6.806;2023-05-10T11:01:19;12.77;;;10.02;;
11018;SDS011;5563;52.296;6.806;2023-05-10T11:06:29;12.45;;;9.60;;
11018;SDS011;5563;52.296;6.806;2023-05-10T11:09:07;12.77;;;8.98;;
11018;SDS011;5563;52.296;6.806;2023-05-10T11:11:53;10.15;;;8.20;;
11018;SDS011;5563;52.296;6.806;2023-05-10T11:14:32;11.27;;;8.70;;
11018;SDS011;5563;52.296;6.806;2023-05-10T11:20:07;19.00;;;15.15;;
11018;SDS011;5563;52.296;6.806;2023-05-10T11:25:18;8.70;;;7.30;;
11018;SDS011;5563;52.296;6.806;2023-05-10T11:28:02;13.75;;;7.72;;
11018;SDS011;5563;52.296;6.806;2023-05-10T11:30:30;10.25;;;6.80;;
11018;SDS011;5563;52.296;6.806;2023-05-10T11:33:04;8.50;;;6.93;;
11018;SDS011;5563;52.296;6.806;2023-05-10T11:35:41;8.52;;;7.07;;
11018;SDS011;5563;52.296;6.806;2023-05-10T11:38:15;7.82;;;7.10;;
11018;SDS011;5563;52.296;6.806;2023-05-10T11:40:42;7.60;;;6.80;;
11018;SDS011;5563;52.296;6.806;2023-05-10T11:43:16;11.18;;;7.78;;
11018;SDS011;5563;52.296;6.806;2023-05-10T11:45:43;10.05;;;7.88;;
11018;SDS011;5563;52.296;6.806;2023-05-10T11:48:31;10.35;;;7.90;;
11018;SDS011;5563;52.296;6.806;2023-05-10T11:50:58;12.57;;;8.38;;
11018;SDS011;5563;52.296;6.806;2023-05-10T11:53:34;11.13;;;8.63;;
11018;SDS011;5563;52.296;6.806;2023-05-10T11:56:02;12.48;;;8.02;;
11018;SDS011;5563;52.296;6.806;2023-05-10T11:58:39;10.00;;;8.45;;
11018;SDS011;5563;52.296;6.806;2023-05-10T12:01:12;10.82;;;9.10;;
11018;SDS011;5563;52.296;6.806;2023-05-10T12:03:39;11.40;;;9.43;;
11018;SDS011;5563;52.296;6.806;2023-05-10T12:06:13;13.50;;;10.43;;
11018;SDS011;5563;52.296;6.806;2023-05-10T12:08:43;12.70;;;9.77;;
11018;SDS011;5563;52.296;6.806;2023-05-10T12:11:24;14.10;;;9.77;;
11018;SDS011;5563;52.296;6.806;2023-05-10T12:13:52;12.43;;;10.05;;
11018;SDS011;5563;52.296;6.806;2023-05-10T12:16:29;12.65;;;9.80;;
11018;SDS011;5563;52.296;6.806;2023-05-10T12:18:57;12.68;;;10.38;;
11018;SDS011;5563;52.296;6.806;2023-05-10T12:21:32;14.70;;;10.93;;
11018;SDS011;5563;52.296;6.806;2023-05-10T12:24:01;14.68;;;10.73;;
11018;SDS011;5563;52.296;6.806;2023-05-10T12:26:36;11.13;;;9.07;;
11018;SDS011;5563;52.296;6.806;2023-05-10T12:29:17;10.73;;;8.95;;
11018;SDS011;5563;52.296;6.806;2023-05-10T12:31:55;12.25;;;9.73;;
11018;SDS011;5563;52.296;6.806;2023-05-10T12:37:05;11.23;;;10.02;;
11018;SDS011;5563;52.296;6.806;2023-05-10T12:39:38;10.93;;;9.75;;
11018;SDS011;5563;52.296;6.806;2023-05-10T12:42:15;11.45;;;9.55;;
11018;SDS011;5563;52.296;6.806;2023-05-10T12:44:54;10.70;;;8.95;;
11018;SDS011;5563;52.296;6.806;2023-05-10T12:47:36;11.35;;;8.75;;
11018;SDS011;5563;52.296;6.806;2023-05-10T12:50:06;12.90;;;8.73;;
11018;SDS011;5563;52.296;6.806;2023-05-10T12:52:40;11.00;;;8.68;;
11018;SDS011;5563;52.296;6.806;2023-05-10T12:55:13;12.18;;;9.07;;
11018;SDS011;5563;52.296;6.806;2023-05-10T12:57:43;9.60;;;7.53;;
11018;SDS011;5563;52.296;6.806;2023-05-10T13:00:16;8.98;;;7.32;;
11018;SDS011;5563;52.296;6.806;2023-05-10T13:02:44;8.45;;;6.40;;
11018;SDS011;5563;52.296;6.806;2023-05-10T13:05:18;9.02;;;7.10;;
11018;SDS011;5563;52.296;6.806;2023-05-10T13:07:45;9.90;;;8.07;;
11018;SDS011;5563;52.296;6.806;2023-05-10T13:10:18;8.60;;;7.50;;
11018;SDS011;5563;52.296;6.806;2023-05-10T13:12:45;9.52;;;6.93;;
11018;SDS011;5563;52.296;6.806;2023-05-10T13:15:18;8.85;;;7.03;;
11018;SDS011;5563;52.296;6.806;2023-05-10T13:17:46;7.95;;;6.68;;
11018;SDS011;5563;52.296;6.806;2023-05-10T13:20:19;9.07;;;7.10;;
11018;SDS011;5563;52.296;6.806;2023-05-10T13:22:47;8.15;;;7.15;;
11018;SDS011;5563;52.296;6.806;2023-05-10T13:25:20;7.85;;;7.03;;
11018;SDS011;5563;52.296;6.806;2023-05-10T13:27:47;10.93;;;7.78;;
11018;SDS011;5563;52.296;6.806;2023-05-10T13:30:20;8.55;;;7.65;;
11018;SDS011;5563;52.296;6.806;2023-05-10T13:32:56;8.82;;;7.88;;
11018;SDS011;5563;52.296;6.806;2023-05-10T13:35:29;10.50;;;8.48;;
11018;SDS011;5563;52.296;6.806;2023-05-10T13:38:02;11.30;;;7.90;;
11018;SDS011;5563;52.296;6.806;2023-05-10T13:40:29;9.68;;;7.55;;
11018;SDS011;5563;52.296;6.806;2023-05-10T13:43:02;9.45;;;7.93;;
11018;SDS011;5563;52.296;6.806;2023-05-10T13:45:29;7.43;;;6.45;;
11018;SDS011;5563;52.296;6.806;2023-05-10T13:48:02;6.75;;;6.05;;
11018;SDS011;5563;52.296;6.806;2023-05-10T13:50:42;7.57;;;6.55;;
11018;SDS011;5563;52.296;6.806;2023-05-10T13:53:16;7.13;;;6.43;;
11018;SDS011;5563;52.296;6.806;2023-05-10T13:55:43;7.95;;;6.82;;
11018;SDS011;5563;52.296;6.806;2023-05-10T13:58:17;8.20;;;6.15;;
11018;SDS011;5563;52.296;6.806;2023-05-10T14:00:44;6.45;;;5.28;;
11018;SDS011;5563;52.296;6.806;2023-05-10T14:03:11;6.53;;;5.07;;
11018;SDS011;5563;52.296;6.806;2023-05-10T14:05:45;5.95;;;4.57;;
11018;SDS011;5563;52.296;6.806;2023-05-10T14:08:19;5.88;;;4.72;;
11018;SDS011;5563;52.296;6.806;2023-05-10T14:11:06;4.60;;;4.15;;
11018;SDS011;5563;52.296;6.806;2023-05-10T14:13:39;5.47;;;4.38;;
11018;SDS011;5563;52.296;6.806;2023-05-10T14:16:06;4.70;;;4.10;;
11018;SDS011;5563;52.296;6.806;2023-05-10T14:18:40;5.38;;;4.88;;
11018;SDS011;5563;52.296;6.806;2023-05-10T14:21:07;4.90;;;4.43;;
11018;SDS011;5563;52.296;6.806;2023-05-10T14:23:34;5.85;;;4.53;;
11018;SDS011;5563;52.296;6.806;2023-05-10T14:26:07;6.15;;;4.80;;
11018;SDS011;5563;52.296;6.806;2023-05-10T14:28:41;5.07;;;4.55;;
11018;SDS011;5563;52.296;6.806;2023-05-10T14:31:14;5.97;;;4.55;;
11018;SDS011;5563;52.296;6.806;2023-05-10T14:33:43;5.32;;;4.70;;
11018;SDS011;5563;52.296;6.806;2023-05-10T14:36:17;6.38;;;4.85;;
11018;SDS011;5563;52.296;6.806;2023-05-10T14:38:57;5.43;;;4.70;;
11018;SDS011;5563;52.296;6.806;2023-05-10T14:41:25;5.70;;;4.80;;
11018;SDS011;5563;52.296;6.806;2023-05-10T14:43:57;6.05;;;5.45;;
11018;SDS011;5563;52.296;6.806;2023-05-10T14:46:24;8.05;;;5.90;;
11018;SDS011;5563;52.296;6.806;2023-05-10T14:49:04;7.25;;;5.88;;
11018;SDS011;5563;52.296;6.806;2023-05-10T14:51:37;7.00;;;5.75;;
11018;SDS011;5563;52.296;6.806;2023-05-10T14:54:05;6.75;;;5.72;;
11018;SDS011;5563;52.296;6.806;2023-05-10T14:56:38;8.77;;;6.90;;
11018;SDS011;5563;52.296;6.806;2023-05-10T14:59:13;7.38;;;6.00;;
11018;SDS011;5563;52.296;6.806;2023-05-10T15:01:41;8.10;;;6.47;;
11018;SDS011;5563;52.296;6.806;2023-05-10T15:04:16;6.47;;;5.88;;
11018;SDS011;5563;52.296;6.806;2023-05-10T15:06:43;9.48;;;7.00;;
11018;SDS011;5563;52.296;6.806;2023-05-10T15:09:17;8.05;;;6.88;;
11018;SDS011;5563;52.296;6.806;2023-05-10T15:11:44;9.93;;;6.75;;
11018;SDS011;5563;52.296;6.806;2023-05-10T15:14:17;9.68;;;6.90;;
11018;SDS011;5563;52.296;6.806;2023-05-10T15:16:51;7.88;;;6.03;;
11018;SDS011;5563;52.296;6.806;2023-05-10T15:19:20;7.90;;;6.47;;
11018;SDS011;5563;52.296;6.806;2023-05-10T15:21:56;7.13;;;6.40;;
11018;SDS011;5563;52.296;6.806;2023-05-10T15:24:35;7.32;;;6.03;;
11018;SDS011;5563;52.296;6.806;2023-05-10T15:27:12;7.30;;;6.47;;
11018;SDS011;5563;52.296;6.806;2023-05-10T15:29:39;8.57;;;7.50;;
11018;SDS011;5563;52.296;6.806;2023-05-10T15:32:13;8.90;;;6.72;;
11018;SDS011;5563;52.296;6.806;2023-05-10T15:34:39;7.45;;;6.60;;
11018;SDS011;5563;52.296;6.806;2023-05-10T15:37:14;7.97;;;6.82;;
11018;SDS011;5563;52.296;6.806;2023-05-10T15:39:40;8.48;;;7.30;;
11018;SDS011;5563;52.296;6.806;2023-05-10T15:42:14;8.30;;;6.72;;
11018;SDS011;5563;52.296;6.806;2023-05-10T15:44:47;7.85;;;6.97;;
11018;SDS011;5563;52.296;6.806;2023-05-10T15:47:16;8.52;;;7.10;;
11018;SDS011;5563;52.296;6.806;2023-05-10T15:49:49;8.00;;;7.03;;
11018;SDS011;5563;52.296;6.806;2023-05-10T15:52:22;8.23;;;7.30;;
11018;SDS011;5563;52.296;6.806;2023-05-10T15:54:55;7.75;;;6.90;;
11018;SDS011;5563;52.296;6.806;2023-05-10T15:57:22;9.45;;;7.60;;
11018;SDS011;5563;52.296;6.806;2023-05-10T16:00:01;8.13;;;7.32;;
11018;SDS011;5563;52.296;6.806;2023-05-10T16:02:30;9.38;;;6.75;;